Onde está Monte da Formiga en Portugal?

 

Monte da Formiga está situado na região Santarem em Portugal!

Buscar o nome de uma cidade:

Monte Panda, Monteroni, Mont Mungo, Monte Águila, Monte Calamita

Aqui você vai encontrar a localização de Monte da Formiga em um mapa.
Para ver como ele atualmente parece, abaixo estão algumas fotos da região, com webcams online.
Você também pode encontrar a distância para as principais cidades da região e de cidades do resto do Portugal.

Cidades do mundo
Cidades em Portugal que também são encontradas em outros países do mundo.


Onde está Monte da Formiga no mapa?




Webcams perto Monte da Formiga

Benavente › North-East: Santarém - AIrport, METAR: BENAV 180005Z 36004KT 17/14 Q1015.


Benavente › North-East: Santarém - AIrport, METAR: BENAV 180005Z 36004KT 17/14 Q1015 - Dia
Actual
Benavente › North-East: Santarém - AIrport, METAR: BENAV 180005Z 36004KT 17/14 Q1015 - Actual

Parque das Nacoes › South: Rua Vasco da Gama.


Parque das Nacoes › South: Rua Vasco da Gama - Dia
Actual
Parque das Nacoes › South: Rua Vasco da Gama - Actual

Lisbon › North: Ponte Vasco da Gama.


Lisbon › North: Ponte Vasco da Gama - Dia
Actual
Lisbon › North: Ponte Vasco da Gama - Actual

Webcams provided by windy.comadd a webcam


Distâncias

Onde está Monte da Formiga em relação a outros lugares?

Top 10 cidades em Santarem e distância de Monte da Formiga.

Cidade#Populaçãokmmilhas
Santarém1293854327
Entroncamento2198877245
Tomar3191688955
Torres Novas4145267245
Samora Correia514154149
Abrantes6136468452
Ourém7127298955
Rio Maior8120645635
Fátima9117988553
Almeirim10115564226

Top 10 cidades em Portugal e distância de Monte da Formiga.

Cidade # Populaçãokmmilhas
Lisbon15177983723
Porto2249630256159
Amadora31788564528
Braga4121393301187
Setúbal51171093924
Coimbra610658015395
Queluz71033984528
Funchal8980411009627
Vila Nova de Gaia970810254158
Loures10662303723



Info

Estatística e Geografia

Portugal é composta de 15299 cidades em 20 regiões.

A região de Santarem tem 1174 cidades.

Monte da Formiga é o número 688 na região Santarem.

A cidade é o número 8480 na Portugal.

Onde está Monte da Formiga en Portugal?